createdAt,value
2019-05-19T00:04:05.655Z,27.23
2019-05-19T00:09:11.496Z,27.07
2019-05-19T00:14:17.363Z,25.10
2019-05-19T00:19:26.697Z,27.00
2019-05-19T00:24:30.472Z,25.60
2019-05-19T00:29:36.226Z,30.67
2019-05-19T00:34:41.783Z,28.60
2019-05-19T00:39:47.437Z,28.70
2019-05-19T00:44:55.820Z,25.17
2019-05-19T00:50:01.495Z,26.33
2019-05-19T00:55:07.692Z,24.83
2019-05-19T01:00:14.133Z,26.27
2019-05-19T01:05:20.769Z,29.80
2019-05-19T01:10:27.017Z,24.07
2019-05-19T01:15:34.186Z,27.77
2019-05-19T01:20:39.930Z,25.67
2019-05-19T01:25:45.921Z,24.87
2019-05-19T01:30:51.791Z,30.07
2019-05-19T01:35:57.431Z,27.07
2019-05-19T01:41:02.996Z,26.53
2019-05-19T01:46:09.369Z,28.90
2019-05-19T01:51:15.039Z,29.53
2019-05-19T01:56:20.538Z,28.50
2019-05-19T02:01:26.858Z,32.47
2019-05-19T02:06:32.404Z,29.93
2019-05-19T02:11:38.177Z,31.77
2019-05-19T02:16:44.936Z,28.90
2019-05-19T02:21:53.271Z,31.13
2019-05-19T02:26:58.993Z,27.97
2019-05-19T02:32:04.937Z,32.10
2019-05-19T02:37:10.675Z,30.43
2019-05-19T02:42:19.677Z,27.20
2019-05-19T02:47:27.150Z,26.97
2019-05-19T02:52:34.064Z,28.17
2019-05-19T02:57:41.338Z,37.63
2019-05-19T03:02:47.060Z,28.37
2019-05-19T03:07:52.443Z,28.30
2019-05-19T03:12:58.156Z,29.73
2019-05-19T03:18:03.979Z,26.10
2019-05-19T03:23:09.801Z,28.47
2019-05-19T03:28:15.528Z,24.97
2019-05-19T03:33:24.575Z,30.37
2019-05-19T03:38:30.320Z,25.97
2019-05-19T03:43:35.920Z,24.57
2019-05-19T03:48:42.287Z,23.80
2019-05-19T03:53:48.117Z,26.20
2019-05-19T03:58:53.686Z,25.13
2019-05-19T04:03:59.795Z,27.43
2019-05-19T04:09:07.067Z,24.43
2019-05-19T04:14:13.250Z,25.37
2019-05-19T04:19:18.904Z,22.83
2019-05-19T04:24:24.606Z,24.33
2019-05-19T04:29:30.186Z,21.20
2019-05-19T04:34:36.041Z,21.73
2019-05-19T04:39:41.572Z,20.20
2019-05-19T04:44:47.312Z,22.50
2019-05-19T04:49:53.177Z,18.63
2019-05-19T04:54:58.999Z,19.47
2019-05-19T05:00:04.628Z,18.23
2019-05-19T05:05:12.242Z,18.03
2019-05-19T05:10:17.932Z,16.40
2019-05-19T05:15:23.924Z,16.47
2019-05-19T05:20:31.273Z,17.50
2019-05-19T05:25:37.344Z,15.83
2019-05-19T05:30:43.957Z,14.70
2019-05-19T05:35:55.612Z,14.63
2019-05-19T05:41:04.343Z,13.03
2019-05-19T05:58:14.546Z,10.37
2019-05-19T06:04:24.859Z,13.17
2019-05-19T06:10:42.702Z,10.77
2019-05-19T06:16:36.760Z,10.73
2019-05-19T06:22:57.282Z,9.93
2019-05-19T06:48:14.846Z,8.37
2019-05-19T07:01:18.011Z,9.10
2019-05-19T07:19:41.878Z,11.27
2019-05-19T07:49:11.348Z,9.87
2019-05-19T08:01:10.006Z,11.63
2019-05-19T09:01:19.118Z,8.50
2019-05-19T09:12:51.737Z,8.00
2019-05-19T09:17:57.200Z,8.40
2019-05-19T09:28:34.374Z,8.17
2019-05-19T09:33:46.474Z,6.70
2019-05-19T09:38:54.316Z,8.53
2019-05-19T09:44:04.769Z,7.57
2019-05-19T09:49:29.366Z,6.90
2019-05-19T09:54:45.317Z,6.20
2019-05-19T09:59:46.226Z,7.03
2019-05-19T10:04:53.800Z,6.43
2019-05-19T10:10:06.074Z,7.30
2019-05-19T10:15:15.051Z,7.60
2019-05-19T10:25:47.363Z,6.03
2019-05-19T10:30:55.518Z,5.73
2019-05-19T10:41:40.823Z,5.13
2019-05-19T10:46:51.058Z,5.40
2019-05-19T10:51:58.343Z,6.00
2019-05-19T10:57:07.228Z,5.33
2019-05-19T11:02:21.553Z,6.17
2019-05-19T11:07:36.307Z,5.77
2019-05-19T11:12:54.484Z,5.20
2019-05-19T11:18:07.429Z,6.70
2019-05-19T11:23:35.309Z,6.67
2019-05-19T11:28:44.336Z,7.00
2019-05-19T11:39:43.466Z,5.37
2019-05-19T11:44:55.187Z,5.23
2019-05-19T11:50:23.382Z,6.63
2019-05-19T11:55:32.139Z,16.50
2019-05-19T12:00:41.616Z,5.40
2019-05-19T12:05:53.338Z,6.33
2019-05-19T12:11:02.915Z,5.47
2019-05-19T12:27:33.692Z,6.57
2019-05-19T12:32:45.808Z,5.00
2019-05-19T12:37:58.216Z,5.73
2019-05-19T12:43:06.172Z,5.37
2019-05-19T12:48:13.938Z,5.50
2019-05-19T12:53:22.460Z,7.13
2019-05-19T12:58:30.809Z,6.27
2019-05-19T13:03:44.264Z,4.17
2019-05-19T13:08:54.389Z,5.60
2019-05-19T13:19:59.875Z,5.20
2019-05-19T13:25:27.097Z,5.20
2019-05-19T13:30:43.522Z,9.33
2019-05-19T13:35:49.848Z,6.13
2019-05-19T13:40:57.047Z,5.17
2019-05-19T13:46:04.827Z,3.90
2019-05-19T13:51:15.539Z,4.67
2019-05-19T13:56:27.211Z,4.67
2019-05-19T14:01:32.894Z,4.13
2019-05-19T14:06:42.421Z,4.00
2019-05-19T14:11:59.930Z,4.37
2019-05-19T14:17:15.295Z,5.13
2019-05-19T14:22:25.441Z,3.97
2019-05-19T14:27:33.225Z,15.60
2019-05-19T14:32:42.025Z,3.67
2019-05-19T14:37:49.870Z,3.80
2019-05-19T14:48:22.057Z,6.03
2019-05-19T14:53:33.866Z,4.23
2019-05-19T14:58:40.359Z,4.80
2019-05-19T15:03:48.993Z,4.10
2019-05-19T15:14:33.460Z,3.67
2019-05-19T15:19:39.290Z,4.23
2019-05-19T15:30:27.021Z,3.93
2019-05-19T15:35:32.707Z,6.03
2019-05-19T15:40:42.458Z,4.73
2019-05-19T15:45:50.830Z,5.33
2019-05-19T15:51:04.693Z,4.47
2019-05-19T15:56:19.773Z,4.00
2019-05-19T16:07:02.012Z,4.50
2019-05-19T16:12:10.831Z,3.90
2019-05-19T16:17:24.384Z,4.07
2019-05-19T16:22:32.266Z,4.03
2019-05-19T16:27:39.477Z,5.27
2019-05-19T16:32:47.452Z,4.93
2019-05-19T16:37:53.231Z,4.67
2019-05-19T16:43:02.204Z,4.43
2019-05-19T16:48:19.651Z,4.80
2019-05-19T16:53:27.381Z,5.10
2019-05-19T16:58:44.900Z,7.10
2019-05-19T17:04:02.655Z,5.87
2019-05-19T17:14:38.249Z,9.50
2019-05-19T17:19:46.931Z,11.60
2019-05-19T17:24:52.856Z,4.97
2019-05-19T17:29:59.641Z,6.10
2019-05-19T17:35:08.064Z,5.27
2019-05-19T17:40:15.311Z,5.63
2019-05-19T17:45:24.896Z,5.40
2019-05-19T17:50:52.811Z,5.00
2019-05-19T17:56:00.471Z,5.00
2019-05-19T18:01:10.079Z,4.80
2019-05-19T18:06:21.760Z,4.40
2019-05-19T18:11:28.687Z,4.50
2019-05-19T18:21:46.143Z,6.63
2019-05-19T18:26:53.904Z,6.10
2019-05-19T18:31:59.829Z,4.37
2019-05-19T18:37:05.969Z,3.57
2019-05-19T18:42:13.796Z,4.77
2019-05-19T18:47:19.293Z,4.53
2019-05-19T18:52:24.717Z,4.40
2019-05-19T18:57:32.471Z,4.30
2019-05-19T19:02:38.132Z,4.70
2019-05-19T19:07:54.594Z,4.87
2019-05-19T19:12:59.875Z,5.27
2019-05-19T19:18:06.117Z,8.30
2019-05-19T19:23:11.477Z,5.57
2019-05-19T19:28:16.753Z,7.50
2019-05-19T19:33:22.141Z,5.40
2019-05-19T19:38:27.497Z,4.50
2019-05-19T19:43:32.795Z,5.07
2019-05-19T19:48:38.268Z,5.73
2019-05-19T19:53:43.519Z,5.47
2019-05-19T19:58:49.387Z,6.73
2019-05-19T20:03:55.064Z,6.07
2019-05-19T20:09:01.511Z,11.10
2019-05-19T20:14:19.527Z,7.50
2019-05-19T20:19:25.075Z,7.10
2019-05-19T20:24:30.344Z,8.97
2019-05-19T20:29:35.945Z,5.87
2019-05-19T20:34:41.290Z,6.57
2019-05-19T20:39:46.679Z,6.13
2019-05-19T20:44:53.339Z,8.47
2019-05-19T20:49:58.643Z,9.10
2019-05-19T20:55:03.885Z,7.60
2019-05-19T21:00:09.761Z,7.13
2019-05-19T21:05:16.728Z,8.13
2019-05-19T21:10:22.003Z,7.80
2019-05-19T21:15:27.321Z,11.40
2019-05-19T21:20:33.759Z,10.23
2019-05-19T21:25:38.976Z,10.27
2019-05-19T21:30:44.666Z,10.47
2019-05-19T21:35:50.909Z,9.23
2019-05-19T21:40:56.228Z,12.77
2019-05-19T21:46:01.478Z,8.00
2019-05-19T21:51:06.850Z,9.20
2019-05-19T21:56:12.057Z,10.23
2019-05-19T22:01:23.170Z,8.60
2019-05-19T22:06:27.178Z,7.67
2019-05-19T22:11:32.453Z,10.17
2019-05-19T22:16:37.642Z,9.23
2019-05-19T22:21:43.400Z,8.67
2019-05-19T22:26:48.756Z,6.60
2019-05-19T22:31:54.423Z,7.27
2019-05-19T22:37:00.675Z,7.83
2019-05-19T22:42:06.069Z,8.60
2019-05-19T22:47:11.555Z,10.70
2019-05-19T22:52:16.924Z,7.93
2019-05-19T22:57:22.127Z,10.07
2019-05-19T23:02:27.387Z,9.13
2019-05-19T23:07:32.543Z,9.27
2019-05-19T23:12:37.852Z,7.70
2019-05-19T23:17:43.385Z,12.60
2019-05-19T23:22:49.273Z,9.20
2019-05-19T23:27:54.500Z,8.47
2019-05-19T23:32:59.740Z,7.77
2019-05-19T23:38:04.932Z,8.43
2019-05-19T23:43:10.149Z,10.53
2019-05-19T23:48:16.932Z,8.07
2019-05-19T23:53:22.321Z,8.40
2019-05-19T23:58:27.572Z,8.17
